sensor_id;sensor_type;location;lat;lon;timestamp;P1;durP1;ratioP1;P2;durP2;ratioP2
52740;SDS011;38634;52.138;9.912;2023-06-05T00:01:13;17.42;;;3.22;;
52740;SDS011;38634;52.138;9.912;2023-06-05T00:03:57;18.73;;;3.47;;
52740;SDS011;38634;52.138;9.912;2023-06-05T08:09:17;18.48;;;3.50;;
52740;SDS011;38634;52.138;9.912;2023-06-05T08:12:03;18.38;;;3.47;;
52740;SDS011;38634;52.138;9.912;2023-06-05T08:14:48;19.73;;;3.38;;
52740;SDS011;38634;52.138;9.912;2023-06-05T08:17:33;12.30;;;2.40;;
52740;SDS011;38634;52.138;9.912;2023-06-05T08:20:18;15.45;;;2.90;;
52740;SDS011;38634;52.138;9.912;2023-06-05T08:23:06;17.13;;;3.20;;
52740;SDS011;38634;52.138;9.912;2023-06-05T08:25:51;19.73;;;3.42;;
52740;SDS011;38634;52.138;9.912;2023-06-05T08:28:39;18.60;;;3.35;;
52740;SDS011;38634;52.138;9.912;2023-06-05T08:31:25;18.23;;;3.00;;
52740;SDS011;38634;52.138;9.912;2023-06-05T08:34:09;17.15;;;3.08;;
52740;SDS011;38634;52.138;9.912;2023-06-05T08:36:54;19.80;;;4.30;;
52740;SDS011;38634;52.138;9.912;2023-06-05T08:39:42;13.63;;;3.13;;
52740;SDS011;38634;52.138;9.912;2023-06-05T08:42:26;15.63;;;2.95;;
52740;SDS011;38634;52.138;9.912;2023-06-05T08:45:12;60.00;;;12.32;;
52740;SDS011;38634;52.138;9.912;2023-06-05T08:48:01;42.58;;;7.63;;
52740;SDS011;38634;52.138;9.912;2023-06-05T08:51:33;14.50;;;3.70;;
52740;SDS011;38634;52.138;9.912;2023-06-05T08:54:21;28.20;;;5.85;;
52740;SDS011;38634;52.138;9.912;2023-06-05T08:57:25;10.75;;;2.30;;
52740;SDS011;38634;52.138;9.912;2023-06-05T09:01:03;19.90;;;4.75;;
52740;SDS011;38634;52.138;9.912;2023-06-05T09:04:26;34.28;;;6.28;;
52740;SDS011;38634;52.138;9.912;2023-06-05T09:07:17;18.58;;;4.72;;
52740;SDS011;38634;52.138;9.912;2023-06-05T09:10:34;26.13;;;5.88;;
52740;SDS011;38634;52.138;9.912;2023-06-05T09:14:03;27.25;;;5.07;;
52740;SDS011;38634;52.138;9.912;2023-06-05T09:17:48;16.95;;;3.70;;
52740;SDS011;38634;52.138;9.912;2023-06-05T09:21:13;32.38;;;6.45;;
52740;SDS011;38634;52.138;9.912;2023-06-05T09:31:58;19.95;;;4.80;;
52740;SDS011;38634;52.138;9.912;2023-06-05T09:39:01;12.60;;;3.00;;
52740;SDS011;38634;52.138;9.912;2023-06-05T09:42:32;17.20;;;5.20;;
52740;SDS011;38634;52.138;9.912;2023-06-05T09:45:43;17.35;;;5.35;;
52740;SDS011;38634;52.138;9.912;2023-06-05T09:48:32;17.02;;;5.55;;
52740;SDS011;38634;52.138;9.912;2023-06-05T09:55:54;4.75;;;2.28;;
52740;SDS011;38634;52.138;9.912;2023-06-05T10:03:17;6.53;;;2.92;;
52740;SDS011;38634;52.138;9.912;2023-06-05T10:06:45;7.32;;;3.13;;
52740;SDS011;38634;52.138;9.912;2023-06-05T10:09:49;10.50;;;4.05;;
52740;SDS011;38634;52.138;9.912;2023-06-05T10:13:29;14.50;;;5.07;;
52740;SDS011;38634;52.138;9.912;2023-06-05T10:16:19;6.38;;;2.60;;
52740;SDS011;38634;52.138;9.912;2023-06-05T10:19:38;7.32;;;2.85;;
52740;SDS011;38634;52.138;9.912;2023-06-05T10:23:18;14.38;;;4.65;;
52740;SDS011;38634;52.138;9.912;2023-06-05T10:34:02;6.80;;;3.15;;
52740;SDS011;38634;52.138;9.912;2023-06-05T10:37:16;14.63;;;4.73;;
52740;SDS011;38634;52.138;9.912;2023-06-05T10:40:16;9.73;;;3.53;;
52740;SDS011;38634;52.138;9.912;2023-06-05T10:46:39;10.43;;;4.00;;
52740;SDS011;38634;52.138;9.912;2023-06-05T10:49:40;6.63;;;2.70;;
52740;SDS011;38634;52.138;9.912;2023-06-05T10:57:16;15.07;;;5.25;;
52740;SDS011;38634;52.138;9.912;2023-06-05T11:00:20;6.28;;;2.65;;
52740;SDS011;38634;52.138;9.912;2023-06-05T11:04:04;11.20;;;3.88;;
52740;SDS011;38634;52.138;9.912;2023-06-05T11:15:35;8.15;;;2.42;;
52740;SDS011;38634;52.138;9.912;2023-06-05T11:18:28;7.32;;;2.70;;
52740;SDS011;38634;52.138;9.912;2023-06-05T11:21:14;6.10;;;2.35;;
52740;SDS011;38634;52.138;9.912;2023-06-05T11:24:14;7.53;;;2.95;;
52740;SDS011;38634;52.138;9.912;2023-06-05T11:27:00;7.72;;;3.17;;
52740;SDS011;38634;52.138;9.912;2023-06-05T11:29:47;7.63;;;2.78;;
52740;SDS011;38634;52.138;9.912;2023-06-05T11:32:33;7.57;;;2.83;;
52740;SDS011;38634;52.138;9.912;2023-06-05T11:35:21;4.68;;;1.75;;
52740;SDS011;38634;52.138;9.912;2023-06-05T11:38:13;8.70;;;3.33;;
52740;SDS011;38634;52.138;9.912;2023-06-05T11:41:05;8.80;;;3.28;;
52740;SDS011;38634;52.138;9.912;2023-06-05T11:43:51;9.40;;;3.05;;
52740;SDS011;38634;52.138;9.912;2023-06-05T11:46:39;5.10;;;2.17;;
52740;SDS011;38634;52.138;9.912;2023-06-05T11:49:26;6.82;;;2.83;;
52740;SDS011;38634;52.138;9.912;2023-06-05T11:52:17;7.15;;;2.85;;
52740;SDS011;38634;52.138;9.912;2023-06-05T11:55:15;8.98;;;2.90;;
52740;SDS011;38634;52.138;9.912;2023-06-05T11:58:06;6.22;;;2.13;;
52740;SDS011;38634;52.138;9.912;2023-06-05T12:00:52;6.65;;;2.47;;
52740;SDS011;38634;52.138;9.912;2023-06-05T12:06:51;8.23;;;3.17;;
52740;SDS011;38634;52.138;9.912;2023-06-05T12:09:36;7.50;;;3.20;;
52740;SDS011;38634;52.138;9.912;2023-06-05T12:12:21;10.82;;;3.05;;
52740;SDS011;38634;52.138;9.912;2023-06-05T12:15:15;7.30;;;2.72;;
52740;SDS011;38634;52.138;9.912;2023-06-05T12:18:03;9.90;;;2.83;;
52740;SDS011;38634;52.138;9.912;2023-06-05T12:20:48;8.38;;;2.60;;
52740;SDS011;38634;52.138;9.912;2023-06-05T12:23:33;8.85;;;2.88;;
52740;SDS011;38634;52.138;9.912;2023-06-05T12:26:17;8.00;;;2.45;;
52740;SDS011;38634;52.138;9.912;2023-06-05T12:29:03;10.13;;;2.83;;
52740;SDS011;38634;52.138;9.912;2023-06-05T12:31:49;10.77;;;3.60;;
52740;SDS011;38634;52.138;9.912;2023-06-05T12:34:47;9.95;;;3.42;;
52740;SDS011;38634;52.138;9.912;2023-06-05T12:37:35;13.40;;;3.85;;
52740;SDS011;38634;52.138;9.912;2023-06-05T12:40:23;9.52;;;3.08;;
52740;SDS011;38634;52.138;9.912;2023-06-05T12:43:16;10.63;;;2.95;;
52740;SDS011;38634;52.138;9.912;2023-06-05T12:46:05;8.30;;;2.95;;
52740;SDS011;38634;52.138;9.912;2023-06-05T12:48:51;8.57;;;3.03;;
52740;SDS011;38634;52.138;9.912;2023-06-05T12:51:35;6.10;;;2.30;;
52740;SDS011;38634;52.138;9.912;2023-06-05T12:54:20;7.38;;;2.80;;
52740;SDS011;38634;52.138;9.912;2023-06-05T12:57:05;7.40;;;2.42;;
52740;SDS011;38634;52.138;9.912;2023-06-05T12:59:52;5.90;;;2.20;;
52740;SDS011;38634;52.138;9.912;2023-06-05T13:02:38;7.07;;;2.25;;
52740;SDS011;38634;52.138;9.912;2023-06-05T13:05:31;6.32;;;2.20;;
52740;SDS011;38634;52.138;9.912;2023-06-05T13:08:15;8.10;;;2.58;;
52740;SDS011;38634;52.138;9.912;2023-06-05T13:11:00;7.07;;;2.38;;
52740;SDS011;38634;52.138;9.912;2023-06-05T13:13:45;4.28;;;1.73;;
52740;SDS011;38634;52.138;9.912;2023-06-05T13:16:29;7.60;;;2.92;;
52740;SDS011;38634;52.138;9.912;2023-06-05T13:19:14;6.30;;;2.38;;
52740;SDS011;38634;52.138;9.912;2023-06-05T13:21:58;7.00;;;2.38;;
52740;SDS011;38634;52.138;9.912;2023-06-05T13:24:43;6.80;;;2.25;;
52740;SDS011;38634;52.138;9.912;2023-06-05T13:27:28;8.15;;;2.90;;
52740;SDS011;38634;52.138;9.912;2023-06-05T13:30:12;5.45;;;1.95;;
52740;SDS011;38634;52.138;9.912;2023-06-05T13:32:57;6.75;;;2.13;;
52740;SDS011;38634;52.138;9.912;2023-06-05T13:35:41;6.05;;;2.17;;
52740;SDS011;38634;52.138;9.912;2023-06-05T13:38:26;7.05;;;2.42;;
52740;SDS011;38634;52.138;9.912;2023-06-05T13:41:10;9.27;;;3.08;;
52740;SDS011;38634;52.138;9.912;2023-06-05T13:43:55;7.63;;;2.50;;
52740;SDS011;38634;52.138;9.912;2023-06-05T13:46:41;6.55;;;2.92;;
52740;SDS011;38634;52.138;9.912;2023-06-05T13:49:27;7.22;;;2.42;;
52740;SDS011;38634;52.138;9.912;2023-06-05T13:52:13;6.63;;;2.22;;
52740;SDS011;38634;52.138;9.912;2023-06-05T13:54:57;6.15;;;2.00;;
52740;SDS011;38634;52.138;9.912;2023-06-05T13:57:42;10.63;;;3.67;;
52740;SDS011;38634;52.138;9.912;2023-06-05T14:00:27;7.40;;;2.50;;
52740;SDS011;38634;52.138;9.912;2023-06-05T14:03:13;8.07;;;2.83;;
52740;SDS011;38634;52.138;9.912;2023-06-05T14:05:57;7.05;;;2.70;;
52740;SDS011;38634;52.138;9.912;2023-06-05T14:08:42;9.50;;;3.15;;
52740;SDS011;38634;52.138;9.912;2023-06-05T14:11:27;7.20;;;2.47;;
52740;SDS011;38634;52.138;9.912;2023-06-05T14:14:11;6.90;;;2.40;;
52740;SDS011;38634;52.138;9.912;2023-06-05T14:16:56;4.85;;;2.03;;
52740;SDS011;38634;52.138;9.912;2023-06-05T14:19:40;7.15;;;2.40;;
52740;SDS011;38634;52.138;9.912;2023-06-05T14:22:25;7.50;;;2.72;;
52740;SDS011;38634;52.138;9.912;2023-06-05T14:25:10;7.13;;;2.45;;
52740;SDS011;38634;52.138;9.912;2023-06-05T14:27:55;5.20;;;1.98;;
52740;SDS011;38634;52.138;9.912;2023-06-05T14:30:40;7.15;;;2.40;;
52740;SDS011;38634;52.138;9.912;2023-06-05T14:33:25;6.00;;;2.00;;
52740;SDS011;38634;52.138;9.912;2023-06-05T14:36:10;7.07;;;2.30;;
52740;SDS011;38634;52.138;9.912;2023-06-05T14:38:55;5.93;;;2.03;;
52740;SDS011;38634;52.138;9.912;2023-06-05T14:41:40;18.52;;;3.00;;
52740;SDS011;38634;52.138;9.912;2023-06-05T14:44:24;6.90;;;2.53;;
52740;SDS011;38634;52.138;9.912;2023-06-05T14:47:09;4.75;;;1.80;;
52740;SDS011;38634;52.138;9.912;2023-06-05T14:49:53;6.63;;;2.35;;
52740;SDS011;38634;52.138;9.912;2023-06-05T14:52:38;7.70;;;2.75;;
52740;SDS011;38634;52.138;9.912;2023-06-05T14:55:22;6.93;;;2.40;;
52740;SDS011;38634;52.138;9.912;2023-06-05T14:58:07;7.60;;;2.72;;
52740;SDS011;38634;52.138;9.912;2023-06-05T15:00:53;7.43;;;2.47;;
52740;SDS011;38634;52.138;9.912;2023-06-05T15:03:38;5.03;;;1.85;;
52740;SDS011;38634;52.138;9.912;2023-06-05T15:06:23;7.43;;;2.65;;
52740;SDS011;38634;52.138;9.912;2023-06-05T15:09:07;6.70;;;2.65;;
52740;SDS011;38634;52.138;9.912;2023-06-05T15:11:53;8.02;;;2.67;;
52740;SDS011;38634;52.138;9.912;2023-06-05T15:14:39;8.32;;;2.65;;
52740;SDS011;38634;52.138;9.912;2023-06-05T15:17:24;6.60;;;2.08;;
52740;SDS011;38634;52.138;9.912;2023-06-05T15:20:08;6.50;;;2.33;;
52740;SDS011;38634;52.138;9.912;2023-06-05T15:22:53;7.63;;;2.35;;
52740;SDS011;38634;52.138;9.912;2023-06-05T15:25:41;3.47;;;1.40;;
52740;SDS011;38634;52.138;9.912;2023-06-05T15:28:26;6.65;;;2.22;;
52740;SDS011;38634;52.138;9.912;2023-06-05T15:31:11;6.22;;;2.47;;
52740;SDS011;38634;52.138;9.912;2023-06-05T15:33:55;6.05;;;2.28;;
52740;SDS011;38634;52.138;9.912;2023-06-05T15:36:40;7.55;;;3.15;;
52740;SDS011;38634;52.138;9.912;2023-06-05T15:39:25;4.07;;;1.70;;
52740;SDS011;38634;52.138;9.912;2023-06-05T15:42:10;6.65;;;2.70;;
52740;SDS011;38634;52.138;9.912;2023-06-05T15:45:28;6.95;;;2.83;;
52740;SDS011;38634;52.138;9.912;2023-06-05T15:48:05;4.60;;;1.80;;
52740;SDS011;38634;52.138;9.912;2023-06-05T15:50:50;6.70;;;2.58;;
52740;SDS011;38634;52.138;9.912;2023-06-05T15:53:34;4.82;;;2.08;;
52740;SDS011;38634;52.138;9.912;2023-06-05T15:56:19;5.38;;;2.40;;
52740;SDS011;38634;52.138;9.912;2023-06-05T15:59:05;6.50;;;2.38;;
52740;SDS011;38634;52.138;9.912;2023-06-05T16:01:49;7.10;;;2.58;;
52740;SDS011;38634;52.138;9.912;2023-06-05T16:04:35;7.40;;;2.92;;
52740;SDS011;38634;52.138;9.912;2023-06-05T16:07:20;4.78;;;1.80;;
52740;SDS011;38634;52.138;9.912;2023-06-05T16:10:05;5.70;;;2.13;;
52740;SDS011;38634;52.138;9.912;2023-06-05T16:12:50;4.57;;;1.98;;
52740;SDS011;38634;52.138;9.912;2023-06-05T16:15:38;5.53;;;2.33;;
52740;SDS011;38634;52.138;9.912;2023-06-05T16:18:24;6.03;;;2.03;;
52740;SDS011;38634;52.138;9.912;2023-06-05T16:21:09;4.90;;;1.70;;
52740;SDS011;38634;52.138;9.912;2023-06-05T16:23:54;5.43;;;2.10;;
52740;SDS011;38634;52.138;9.912;2023-06-05T16:26:39;4.68;;;2.47;;
52740;SDS011;38634;52.138;9.912;2023-06-05T16:29:24;5.07;;;2.00;;
52740;SDS011;38634;52.138;9.912;2023-06-05T16:32:13;6.45;;;2.38;;
52740;SDS011;38634;52.138;9.912;2023-06-05T16:34:58;8.18;;;2.50;;
52740;SDS011;38634;52.138;9.912;2023-06-05T16:37:42;6.45;;;2.20;;
52740;SDS011;38634;52.138;9.912;2023-06-05T16:40:27;6.03;;;2.28;;
52740;SDS011;38634;52.138;9.912;2023-06-05T16:43:12;7.22;;;2.30;;
52740;SDS011;38634;52.138;9.912;2023-06-05T16:45:56;6.88;;;2.45;;
52740;SDS011;38634;52.138;9.912;2023-06-05T16:48:41;7.78;;;2.60;;
52740;SDS011;38634;52.138;9.912;2023-06-05T16:51:29;5.70;;;2.28;;
52740;SDS011;38634;52.138;9.912;2023-06-05T16:54:13;6.57;;;2.38;;
52740;SDS011;38634;52.138;9.912;2023-06-05T16:57:05;6.07;;;2.38;;
52740;SDS011;38634;52.138;9.912;2023-06-05T16:59:50;7.00;;;2.30;;
52740;SDS011;38634;52.138;9.912;2023-06-05T17:02:35;8.50;;;2.75;;
52740;SDS011;38634;52.138;9.912;2023-06-05T17:05:19;6.80;;;2.33;;
52740;SDS011;38634;52.138;9.912;2023-06-05T17:08:05;6.05;;;2.33;;
52740;SDS011;38634;52.138;9.912;2023-06-05T17:10:49;7.65;;;2.42;;
52740;SDS011;38634;52.138;9.912;2023-06-05T17:13:34;5.05;;;2.05;;
52740;SDS011;38634;52.138;9.912;2023-06-05T17:16:18;7.15;;;2.38;;
52740;SDS011;38634;52.138;9.912;2023-06-05T17:19:03;4.07;;;1.52;;
52740;SDS011;38634;52.138;9.912;2023-06-05T17:21:47;4.97;;;1.80;;
52740;SDS011;38634;52.138;9.912;2023-06-05T17:24:32;5.35;;;1.80;;
52740;SDS011;38634;52.138;9.912;2023-06-05T17:27:17;5.93;;;2.10;;
52740;SDS011;38634;52.138;9.912;2023-06-05T17:30:01;5.65;;;2.03;;
52740;SDS011;38634;52.138;9.912;2023-06-05T17:32:48;7.47;;;2.65;;
52740;SDS011;38634;52.138;9.912;2023-06-05T17:35:33;2.15;;;1.23;;
52740;SDS011;38634;52.138;9.912;2023-06-05T17:38:17;2.63;;;1.45;;
52740;SDS011;38634;52.138;9.912;2023-06-05T17:41:03;1.67;;;1.00;;
52740;SDS011;38634;52.138;9.912;2023-06-05T17:43:49;3.63;;;1.52;;
52740;SDS011;38634;52.138;9.912;2023-06-05T17:46:35;3.05;;;1.35;;
52740;SDS011;38634;52.138;9.912;2023-06-05T17:49:19;6.30;;;2.20;;
52740;SDS011;38634;52.138;9.912;2023-06-05T17:52:06;6.80;;;2.50;;
52740;SDS011;38634;52.138;9.912;2023-06-05T17:54:51;6.45;;;2.28;;
52740;SDS011;38634;52.138;9.912;2023-06-05T17:57:36;6.10;;;2.15;;
52740;SDS011;38634;52.138;9.912;2023-06-05T18:00:21;7.78;;;2.63;;
52740;SDS011;38634;52.138;9.912;2023-06-05T18:03:07;6.15;;;2.10;;
52740;SDS011;38634;52.138;9.912;2023-06-05T18:05:51;7.05;;;2.60;;
52740;SDS011;38634;52.138;9.912;2023-06-05T18:08:37;6.22;;;2.20;;
52740;SDS011;38634;52.138;9.912;2023-06-05T18:11:22;6.35;;;2.30;;
52740;SDS011;38634;52.138;9.912;2023-06-05T18:14:07;3.80;;;1.67;;
52740;SDS011;38634;52.138;9.912;2023-06-05T18:16:52;8.00;;;3.10;;
52740;SDS011;38634;52.138;9.912;2023-06-05T18:19:37;1.17;;;1.10;;
52740;SDS011;38634;52.138;9.912;2023-06-05T18:22:22;1.92;;;1.40;;
52740;SDS011;38634;52.138;9.912;2023-06-05T18:25:07;1.98;;;1.33;;
52740;SDS011;38634;52.138;9.912;2023-06-05T18:27:54;1.13;;;0.95;;
52740;SDS011;38634;52.138;9.912;2023-06-05T18:30:40;1.20;;;1.10;;
52740;SDS011;38634;52.138;9.912;2023-06-05T18:33:25;1.00;;;0.90;;
52740;SDS011;38634;52.138;9.912;2023-06-05T18:36:11;1.95;;;1.13;;
52740;SDS011;38634;52.138;9.912;2023-06-05T18:39:01;1.95;;;1.55;;
52740;SDS011;38634;52.138;9.912;2023-06-05T18:41:47;0.95;;;0.95;;
52740;SDS011;38634;52.138;9.912;2023-06-05T18:44:32;1.92;;;1.00;;
52740;SDS011;38634;52.138;9.912;2023-06-05T18:47:16;1.50;;;1.00;;
52740;SDS011;38634;52.138;9.912;2023-06-05T18:50:01;3.83;;;1.73;;
52740;SDS011;38634;52.138;9.912;2023-06-05T18:52:45;5.65;;;2.08;;
52740;SDS011;38634;52.138;9.912;2023-06-05T18:55:31;5.13;;;1.95;;
52740;SDS011;38634;52.138;9.912;2023-06-05T18:58:16;4.70;;;1.65;;
52740;SDS011;38634;52.138;9.912;2023-06-05T19:01:00;1.13;;;1.02;;
52740;SDS011;38634;52.138;9.912;2023-06-05T19:03:48;3.53;;;1.58;;
52740;SDS011;38634;52.138;9.912;2023-06-05T19:06:33;1.25;;;1.15;;
52740;SDS011;38634;52.138;9.912;2023-06-05T19:09:18;1.65;;;1.13;;
52740;SDS011;38634;52.138;9.912;2023-06-05T19:12:03;5.40;;;2.17;;
52740;SDS011;38634;52.138;9.912;2023-06-05T19:14:49;7.80;;;2.58;;
52740;SDS011;38634;52.138;9.912;2023-06-05T19:17:33;6.75;;;2.58;;
52740;SDS011;38634;52.138;9.912;2023-06-05T19:20:18;6.70;;;2.40;;
52740;SDS011;38634;52.138;9.912;2023-06-05T19:23:06;5.50;;;2.33;;
52740;SDS011;38634;52.138;9.912;2023-06-05T19:25:50;4.82;;;2.17;;
52740;SDS011;38634;52.138;9.912;2023-06-05T19:28:35;5.28;;;2.30;;
52740;SDS011;38634;52.138;9.912;2023-06-05T19:31:20;5.47;;;2.55;;
52740;SDS011;38634;52.138;9.912;2023-06-05T19:34:04;6.95;;;2.25;;
52740;SDS011;38634;52.138;9.912;2023-06-05T19:36:49;7.93;;;3.60;;
52740;SDS011;38634;52.138;9.912;2023-06-05T19:39:34;6.38;;;2.33;;
52740;SDS011;38634;52.138;9.912;2023-06-05T19:42:20;6.60;;;2.55;;
52740;SDS011;38634;52.138;9.912;2023-06-05T19:45:09;5.30;;;2.20;;
52740;SDS011;38634;52.138;9.912;2023-06-05T19:47:55;6.20;;;2.33;;
52740;SDS011;38634;52.138;9.912;2023-06-05T19:50:39;6.78;;;2.70;;
52740;SDS011;38634;52.138;9.912;2023-06-05T19:53:24;6.35;;;2.30;;
52740;SDS011;38634;52.138;9.912;2023-06-05T19:56:08;6.35;;;2.72;;
52740;SDS011;38634;52.138;9.912;2023-06-05T19:58:53;7.07;;;2.55;;
52740;SDS011;38634;52.138;9.912;2023-06-05T20:01:38;4.50;;;1.80;;
52740;SDS011;38634;52.138;9.912;2023-06-05T20:04:23;9.15;;;3.13;;
52740;SDS011;38634;52.138;9.912;2023-06-05T20:07:10;4.60;;;1.95;;
52740;SDS011;38634;52.138;9.912;2023-06-05T20:09:55;5.38;;;1.90;;
52740;SDS011;38634;52.138;9.912;2023-06-05T20:12:40;4.43;;;1.70;;
52740;SDS011;38634;52.138;9.912;2023-06-05T20:15:24;2.13;;;1.30;;
52740;SDS011;38634;52.138;9.912;2023-06-05T20:18:12;6.80;;;2.42;;
52740;SDS011;38634;52.138;9.912;2023-06-05T20:21:03;4.57;;;1.85;;
52740;SDS011;38634;52.138;9.912;2023-06-05T20:23:48;3.85;;;1.80;;
52740;SDS011;38634;52.138;9.912;2023-06-05T20:26:38;7.50;;;3.38;;
52740;SDS011;38634;52.138;9.912;2023-06-05T20:29:23;6.45;;;2.42;;
52740;SDS011;38634;52.138;9.912;2023-06-05T20:32:11;5.50;;;2.17;;
52740;SDS011;38634;52.138;9.912;2023-06-05T20:35:01;7.60;;;2.63;;
52740;SDS011;38634;52.138;9.912;2023-06-05T20:37:46;4.10;;;2.00;;
52740;SDS011;38634;52.138;9.912;2023-06-05T20:40:45;1.65;;;1.55;;
52740;SDS011;38634;52.138;9.912;2023-06-05T20:43:52;4.10;;;2.22;;
52740;SDS011;38634;52.138;9.912;2023-06-05T20:46:43;3.40;;;2.10;;
52740;SDS011;38634;52.138;9.912;2023-06-05T20:49:33;5.32;;;2.30;;
52740;SDS011;38634;52.138;9.912;2023-06-05T20:52:24;5.00;;;2.78;;
52740;SDS011;38634;52.138;9.912;2023-06-05T20:55:15;4.72;;;2.30;;
52740;SDS011;38634;52.138;9.912;2023-06-05T20:58:12;2.58;;;1.50;;
52740;SDS011;38634;52.138;9.912;2023-06-05T21:00:58;2.80;;;2.15;;
52740;SDS011;38634;52.138;9.912;2023-06-05T21:03:43;1.40;;;1.30;;
52740;SDS011;38634;52.138;9.912;2023-06-05T21:06:34;0.90;;;0.90;;
52740;SDS011;38634;52.138;9.912;2023-06-05T21:09:21;1.25;;;1.15;;
52740;SDS011;38634;52.138;9.912;2023-06-05T21:12:09;1.13;;;1.02;;
52740;SDS011;38634;52.138;9.912;2023-06-05T21:15:00;0.85;;;0.80;;
52740;SDS011;38634;52.138;9.912;2023-06-05T21:17:45;2.00;;;1.50;;
52740;SDS011;38634;52.138;9.912;2023-06-05T21:20:30;6.32;;;2.60;;
52740;SDS011;38634;52.138;9.912;2023-06-05T21:23:14;6.88;;;2.65;;
52740;SDS011;38634;52.138;9.912;2023-06-05T21:25:59;6.15;;;2.42;;
52740;SDS011;38634;52.138;9.912;2023-06-05T21:28:43;6.07;;;2.58;;
52740;SDS011;38634;52.138;9.912;2023-06-05T21:31:42;5.10;;;2.13;;
52740;SDS011;38634;52.138;9.912;2023-06-05T21:34:29;4.17;;;1.97;;
52740;SDS011;38634;52.138;9.912;2023-06-05T21:37:14;4.13;;;1.95;;
52740;SDS011;38634;52.138;9.912;2023-06-05T21:40:05;4.93;;;2.33;;
52740;SDS011;38634;52.138;9.912;2023-06-05T21:42:51;4.60;;;2.40;;
52740;SDS011;38634;52.138;9.912;2023-06-05T21:45:36;5.43;;;2.45;;
52740;SDS011;38634;52.138;9.912;2023-06-05T21:48:20;5.40;;;2.47;;
52740;SDS011;38634;52.138;9.912;2023-06-05T21:51:10;4.72;;;2.22;;
52740;SDS011;38634;52.138;9.912;2023-06-05T21:53:57;4.85;;;2.42;;
52740;SDS011;38634;52.138;9.912;2023-06-05T21:56:42;7.85;;;4.20;;
52740;SDS011;38634;52.138;9.912;2023-06-05T21:59:30;6.55;;;2.45;;
52740;SDS011;38634;52.138;9.912;2023-06-05T22:02:15;4.13;;;2.03;;
52740;SDS011;38634;52.138;9.912;2023-06-05T22:05:02;4.72;;;2.20;;
52740;SDS011;38634;52.138;9.912;2023-06-05T22:07:46;5.75;;;2.53;;
52740;SDS011;38634;52.138;9.912;2023-06-05T22:10:33;5.47;;;2.47;;
52740;SDS011;38634;52.138;9.912;2023-06-05T22:13:18;5.82;;;2.75;;
52740;SDS011;38634;52.138;9.912;2023-06-05T22:16:04;4.10;;;2.08;;
52740;SDS011;38634;52.138;9.912;2023-06-05T22:18:49;4.88;;;2.25;;
52740;SDS011;38634;52.138;9.912;2023-06-05T22:21:35;4.93;;;1.95;;
52740;SDS011;38634;52.138;9.912;2023-06-05T22:24:19;4.35;;;2.13;;
52740;SDS011;38634;52.138;9.912;2023-06-05T22:27:07;5.43;;;2.33;;
52740;SDS011;38634;52.138;9.912;2023-06-05T22:29:52;6.45;;;2.75;;
52740;SDS011;38634;52.138;9.912;2023-06-05T22:32:37;7.03;;;3.17;;
52740;SDS011;38634;52.138;9.912;2023-06-05T22:35:21;4.45;;;2.17;;
52740;SDS011;38634;52.138;9.912;2023-06-05T22:38:09;6.10;;;2.63;;
52740;SDS011;38634;52.138;9.912;2023-06-05T22:40:55;5.13;;;2.10;;
52740;SDS011;38634;52.138;9.912;2023-06-05T22:43:39;5.07;;;2.33;;
52740;SDS011;38634;52.138;9.912;2023-06-05T22:46:24;5.85;;;2.70;;
52740;SDS011;38634;52.138;9.912;2023-06-05T22:49:09;6.45;;;2.65;;
52740;SDS011;38634;52.138;9.912;2023-06-05T22:51:54;6.57;;;2.83;;
52740;SDS011;38634;52.138;9.912;2023-06-05T22:54:39;5.38;;;2.40;;
52740;SDS011;38634;52.138;9.912;2023-06-05T22:57:24;5.55;;;2.53;;
52740;SDS011;38634;52.138;9.912;2023-06-05T23:00:09;5.78;;;2.58;;
52740;SDS011;38634;52.138;9.912;2023-06-05T23:02:55;6.00;;;3.10;;
52740;SDS011;38634;52.138;9.912;2023-06-05T23:05:40;7.28;;;2.97;;
52740;SDS011;38634;52.138;9.912;2023-06-05T23:08:25;5.43;;;2.50;;
52740;SDS011;38634;52.138;9.912;2023-06-05T23:11:10;7.38;;;2.97;;
52740;SDS011;38634;52.138;9.912;2023-06-05T23:13:55;2.83;;;1.58;;
52740;SDS011;38634;52.138;9.912;2023-06-05T23:16:39;7.03;;;3.45;;
52740;SDS011;38634;52.138;9.912;2023-06-05T23:19:24;4.70;;;2.35;;
52740;SDS011;38634;52.138;9.912;2023-06-05T23:22:08;5.93;;;2.63;;
52740;SDS011;38634;52.138;9.912;2023-06-05T23:24:53;7.63;;;3.05;;
